Time;durP1;ratioP1;P1;durP2;ratioP2;P2;SDS_P1;SDS_P2;PMS_P1;PMS_P2;Temp;Humidity;BMP_temperature;BMP_pressure;BME280_temperature;BME280_humidity;BME280_pressure;Samples;Min_cycle;Max_cycle;Signal;HPM_P1;HPM_P2
2021/04/08 00:02:12;;;;;;;1.20;0.90;;;3.20;98.00;;;;;;5088907;28;20955;-73
2021/04/08 00:04:39;;;;;;;1.20;1.00;;;3.20;98.00;;;;;;5090617;28;20933;-72
2021/04/08 00:07:07;;;;;;;1.20;1.00;;;3.00;98.00;;;;;;5088685;28;20459;-73
2021/04/08 00:09:33;;;;;;;1.20;0.90;;;3.00;98.00;;;;;;5090862;28;20969;-73
2021/04/08 00:12:00;;;;;;;1.20;1.00;;;2.90;98.00;;;;;;5092698;28;20462;-73
2021/04/08 00:14:26;;;;;;;1.20;0.90;;;2.80;98.00;;;;;;5094442;28;20486;-72
2021/04/08 00:16:53;;;;;;;1.20;0.97;;;2.80;98.00;;;;;;5092746;28;20490;-73
2021/04/08 00:19:20;;;;;;;1.20;0.90;;;2.80;98.00;;;;;;5094473;28;20976;-73
2021/04/08 00:21:47;;;;;;;1.40;1.10;;;2.70;98.00;;;;;;5092316;28;20482;-73
2021/04/08 00:24:14;;;;;;;1.40;1.10;;;2.80;98.00;;;;;;5094733;28;20456;-73
2021/04/08 00:26:41;;;;;;;1.30;1.10;;;2.80;98.00;;;;;;5092374;28;20618;-72
2021/04/08 00:29:07;;;;;;;1.20;0.90;;;2.90;98.00;;;;;;5094434;28;20491;-72
2021/04/08 00:31:34;;;;;;;1.20;1.03;;;2.80;98.00;;;;;;5092114;28;20511;-72
2021/04/08 00:34:00;;;;;;;1.63;1.20;;;2.80;98.00;;;;;;5093955;28;20867;-73
2021/04/08 00:36:27;;;;;;;1.47;1.10;;;2.90;98.00;;;;;;5091989;28;20804;-72
2021/04/08 00:38:53;;;;;;;1.20;1.10;;;2.90;98.00;;;;;;5094177;28;20484;-72
2021/04/08 00:41:21;;;;;;;1.57;1.37;;;2.90;98.00;;;;;;5091925;28;20455;-72
2021/04/08 00:43:47;;;;;;;1.30;1.30;;;2.80;98.00;;;;;;5094080;28;20517;-72
2021/04/08 00:46:13;;;;;;;1.20;1.10;;;2.80;98.00;;;;;;5091638;28;20455;-72
2021/04/08 00:48:40;;;;;;;1.30;1.10;;;2.80;98.00;;;;;;5093999;28;20524;-73
2021/04/08 00:51:07;;;;;;;1.20;0.97;;;2.80;98.00;;;;;;5091643;28;20463;-73
2021/04/08 00:53:35;;;;;;;1.20;0.90;;;2.70;98.00;;;;;;5093891;28;20851;-73
2021/04/08 00:56:02;;;;;;;1.40;1.03;;;2.70;98.00;;;;;;5091481;28;20573;-73
2021/04/08 00:58:31;;;;;;;1.20;0.90;;;2.70;98.00;;;;;;5093804;28;20447;-72
2021/04/08 01:00:58;;;;;;;1.20;0.90;;;2.70;98.00;;;;;;5091442;28;21033;-73
2021/04/08 01:03:25;;;;;;;1.20;1.10;;;2.70;98.00;;;;;;5093697;28;20815;-73
2021/04/08 01:05:51;;;;;;;1.20;0.90;;;2.70;98.00;;;;;;5091542;28;20454;-73
2021/04/08 01:08:18;;;;;;;1.20;1.00;;;2.90;98.00;;;;;;5093377;28;20460;-73
2021/04/08 01:10:46;;;;;;;2.17;1.43;;;2.80;98.00;;;;;;5091975;28;20946;-73
2021/04/08 01:13:16;;;;;;;1.37;1.10;;;2.80;98.00;;;;;;5092177;28;20536;-73
2021/04/08 01:15:44;;;;;;;1.20;1.07;;;2.80;98.00;;;;;;5092209;28;20486;-73
2021/04/08 01:18:27;;;;;;;1.30;1.20;;;2.70;98.00;;;;;;5091198;28;20513;-73
2021/04/08 01:21:05;;;;;;;1.20;1.00;;;2.80;98.00;;;;;;5090666;28;20491;-73
2021/04/08 01:24:08;;;;;;;1.20;1.00;;;2.80;98.00;;;;;;5093142;28;20459;-73
2021/04/08 01:27:08;;;;;;;1.20;1.00;;;2.80;98.00;;;;;;5091085;28;20459;-73
2021/04/08 01:30:01;;;;;;;1.33;1.33;;;2.90;98.00;;;;;;5093298;28;20561;-73
2021/04/08 01:32:31;;;;;;;1.20;1.00;;;2.90;98.00;;;;;;5089562;28;20463;-73
2021/04/08 01:35:00;;;;;;;1.30;1.20;;;3.00;98.00;;;;;;5093272;28;20509;-72
2021/04/08 01:37:30;;;;;;;1.40;1.37;;;3.20;98.00;;;;;;5090523;28;20448;-73
2021/04/08 01:39:59;;;;;;;1.20;1.00;;;3.10;98.00;;;;;;5093081;28;20463;-72
2021/04/08 01:42:26;;;;;;;1.20;1.00;;;3.00;98.00;;;;;;5090437;28;20868;-72
2021/04/08 01:44:55;;;;;;;1.30;1.17;;;2.90;98.00;;;;;;5092914;28;20452;-73
2021/04/08 01:47:23;;;;;;;1.20;1.00;;;2.90;98.00;;;;;;5090429;28;21041;-73
2021/04/08 01:49:51;;;;;;;1.20;1.00;;;3.00;98.00;;;;;;5092863;28;20462;-73
2021/04/08 01:52:19;;;;;;;1.53;1.53;;;3.00;98.00;;;;;;5088972;28;20452;-73
2021/04/08 01:54:49;;;;;;;1.20;1.00;;;3.00;98.00;;;;;;5092602;28;20503;-74
2021/04/08 01:57:17;;;;;;;2.27;1.83;;;2.90;98.00;;;;;;5090398;28;20938;-73
2021/04/08 01:59:44;;;;;;;1.20;1.00;;;3.00;98.00;;;;;;5092472;28;20452;-73
2021/04/08 02:02:13;;;;;;;1.20;1.13;;;3.00;98.00;;;;;;5090288;28;20448;-73
2021/04/08 02:04:41;;;;;;;1.20;1.10;;;3.00;98.00;;;;;;5092519;28;20862;-73
2021/04/08 02:07:08;;;;;;;1.20;1.00;;;3.00;98.00;;;;;;5090084;28;20491;-73
2021/04/08 02:09:37;;;;;;;1.20;1.00;;;3.10;98.00;;;;;;5092412;28;20463;-72
2021/04/08 02:12:07;;;;;;;1.57;1.40;;;3.20;98.00;;;;;;5090060;28;20448;-73
2021/04/08 02:14:35;;;;;;;1.20;1.07;;;3.00;98.00;;;;;;5092231;28;20520;-73
2021/04/08 02:17:03;;;;;;;1.20;1.20;;;3.00;98.00;;;;;;5090264;28;20463;-72
2021/04/08 02:19:31;;;;;;;1.20;1.00;;;3.00;98.00;;;;;;5092131;28;20475;-73
2021/04/08 02:22:00;;;;;;;1.20;1.00;;;3.00;98.00;;;;;;5090129;28;20452;-73
2021/04/08 02:24:30;;;;;;;1.30;1.10;;;3.00;98.00;;;;;;5092000;28;20452;-73
2021/04/08 02:26:57;;;;;;;1.20;0.97;;;3.00;98.00;;;;;;5090051;28;20493;-73
2021/04/08 02:29:25;;;;;;;1.20;1.00;;;3.00;98.00;;;;;;5091908;28;20463;-73
2021/04/08 02:31:53;;;;;;;1.43;1.10;;;2.90;98.00;;;;;;5088509;28;20463;-73
2021/04/08 02:34:20;;;;;;;1.20;1.00;;;2.90;98.00;;;;;;5091223;28;20911;-72
2021/04/08 02:36:47;;;;;;;1.20;1.00;;;2.90;98.00;;;;;;5089822;28;20460;-73
2021/04/08 02:39:13;;;;;;;1.40;1.40;;;2.80;98.00;;;;;;5091866;28;20859;-73
2021/04/08 02:41:41;;;;;;;1.30;1.10;;;2.90;98.00;;;;;;5089978;28;20460;-73
2021/04/08 02:44:08;;;;;;;1.20;1.00;;;2.90;98.00;;;;;;5091891;28;20455;-72
2021/04/08 02:46:35;;;;;;;1.20;1.07;;;2.90;98.00;;;;;;5089608;28;20974;-72
2021/04/08 02:49:02;;;;;;;1.20;1.10;;;2.90;98.00;;;;;;5091777;28;20491;-73
2021/04/08 02:51:34;;;;;;;1.20;1.00;;;2.90;98.00;;;;;;5089678;28;20822;-72
2021/04/08 02:54:09;;;;;;;1.83;1.80;;;3.10;98.00;;;;;;5091823;28;20487;-73
2021/04/08 02:56:40;;;;;;;1.23;1.10;;;3.30;98.00;;;;;;5089578;28;20530;-72
2021/04/08 02:59:13;;;;;;;1.97;1.20;;;3.40;98.00;;;;;;5091505;28;20456;-72
2021/04/08 03:01:48;;;;;;;1.40;1.20;;;3.40;98.00;;;;;;5089301;28;20452;-72
2021/04/08 03:04:18;;;;;;;1.20;1.00;;;3.50;98.00;;;;;;5091355;28;20455;-72
2021/04/08 03:06:46;;;;;;;1.20;0.90;;;3.60;98.00;;;;;;5089115;28;20452;-72
2021/04/08 03:09:14;;;;;;;1.20;1.03;;;3.70;98.00;;;;;;5091245;28;20466;-72
2021/04/08 03:11:42;;;;;;;1.20;0.90;;;3.70;98.00;;;;;;5087590;28;20492;-72
2021/04/08 03:14:12;;;;;;;1.20;1.10;;;3.80;98.00;;;;;;5091385;28;20867;-72
2021/04/08 03:16:42;;;;;;;1.20;1.00;;;3.70;98.00;;;;;;5088938;28;20466;-72
2021/04/08 03:19:13;;;;;;;1.20;0.90;;;3.60;98.00;;;;;;5091177;28;20453;-73
2021/04/08 03:21:41;;;;;;;1.20;1.03;;;3.50;98.00;;;;;;5089688;28;20942;-72
2021/04/08 03:24:10;;;;;;;1.20;0.90;;;3.50;98.00;;;;;;5091636;28;20950;-72
2021/04/08 03:26:38;;;;;;;1.20;1.00;;;3.50;98.00;;;;;;5090005;28;20463;-72
2021/04/08 03:29:06;;;;;;;1.20;0.90;;;3.40;98.00;;;;;;5091599;28;20556;-73
2021/04/08 03:31:34;;;;;;;1.20;1.00;;;3.20;98.00;;;;;;5088856;28;20945;-72
2021/04/08 03:34:02;;;;;;;1.20;1.00;;;3.00;98.00;;;;;;5091154;28;21016;-72
2021/04/08 03:36:29;;;;;;;2.27;1.50;;;2.90;98.00;;;;;;5088829;28;20484;-72
2021/04/08 03:38:56;;;;;;;1.57;1.20;;;2.80;98.00;;;;;;5090613;28;20471;-72
2021/04/08 03:41:23;;;;;;;1.20;1.00;;;2.70;98.00;;;;;;5089197;28;20885;-72
2021/04/08 03:43:50;;;;;;;1.20;0.90;;;2.60;98.00;;;;;;5090752;28;20946;-73
2021/04/08 03:46:19;;;;;;;1.77;1.20;;;2.60;98.00;;;;;;5088586;28;20460;-73
2021/04/08 03:48:49;;;;;;;1.20;1.20;;;2.60;98.00;;;;;;5090722;28;20481;-72
2021/04/08 03:51:17;;;;;;;1.20;1.03;;;2.60;98.00;;;;;;5088878;28;20474;-73
2021/04/08 03:53:45;;;;;;;1.50;1.40;;;2.60;98.00;;;;;;5090779;28;20541;-72
2021/04/08 03:56:14;;;;;;;1.20;1.00;;;2.50;98.00;;;;;;5088789;28;20459;-73
2021/04/08 03:58:42;;;;;;;1.20;1.00;;;2.50;98.00;;;;;;5089533;28;20906;-72
2021/04/08 04:01:09;;;;;;;1.30;1.10;;;2.40;98.00;;;;;;5089004;28;20455;-72
2021/04/08 04:03:37;;;;;;;1.20;1.00;;;2.40;98.00;;;;;;5090757;28;20462;-72
2021/04/08 04:06:08;;;;;;;1.20;1.00;;;2.40;98.00;;;;;;5089488;28;20914;-72
2021/04/08 04:08:36;;;;;;;1.50;1.17;;;2.50;98.00;;;;;;5090816;28;20860;-73
2021/04/08 04:11:04;;;;;;;1.20;1.00;;;2.50;98.00;;;;;;5090330;28;20487;-72
2021/04/08 04:13:32;;;;;;;1.20;1.00;;;2.60;98.00;;;;;;5090198;28;20491;-72
2021/04/08 04:15:59;;;;;;;1.20;1.03;;;2.70;98.00;;;;;;5090899;28;20849;-72
2021/04/08 04:18:26;;;;;;;1.30;1.10;;;2.70;98.00;;;;;;5088628;28;20452;-73
2021/04/08 04:20:53;;;;;;;1.20;0.93;;;2.70;98.00;;;;;;5090805;28;20452;-72
2021/04/08 04:23:22;;;;;;;1.20;1.00;;;2.50;98.00;;;;;;5070729;28;20467;-72
2021/04/08 04:25:50;;;;;;;1.20;1.00;;;2.50;98.00;;;;;;5090827;28;20465;-72
2021/04/08 04:28:16;;;;;;;1.73;1.40;;;2.50;98.00;;;;;;5086960;28;20482;-73
2021/04/08 04:30:45;;;;;;;1.20;1.00;;;2.50;98.00;;;;;;5090506;28;20509;-72
2021/04/08 04:33:12;;;;;;;1.20;1.00;;;2.40;98.00;;;;;;5087448;28;20486;-72
2021/04/08 04:35:39;;;;;;;1.20;0.90;;;2.50;98.00;;;;;;5090276;28;20824;-72
2021/04/08 04:38:06;;;;;;;1.20;1.10;;;2.50;98.00;;;;;;5086921;28;20454;-72
2021/04/08 04:40:35;;;;;;;1.50;1.37;;;2.60;98.00;;;;;;5090499;28;20451;-72
2021/04/08 04:43:01;;;;;;;1.20;1.00;;;2.60;98.00;;;;;;5088524;28;20791;-73
2021/04/08 04:45:34;;;;;;;1.50;1.40;;;2.60;98.00;;;;;;5090328;28;20519;-72
2021/04/08 04:48:00;;;;;;;1.67;1.20;;;2.70;98.00;;;;;;5085883;28;20468;-72
2021/04/08 04:50:28;;;;;;;1.20;1.10;;;2.70;98.00;;;;;;5090242;28;20483;-72
2021/04/08 04:52:54;;;;;;;1.20;1.00;;;2.70;98.00;;;;;;5086956;28;20942;-73
2021/04/08 04:55:23;;;;;;;1.50;1.30;;;2.70;98.00;;;;;;5090003;28;20455;-73
2021/04/08 04:57:50;;;;;;;1.20;1.00;;;2.70;98.00;;;;;;5091742;28;20854;-72
2021/04/08 05:00:19;;;;;;;1.70;1.60;;;2.80;98.00;;;;;;5093840;28;20459;-73
2021/04/08 05:02:46;;;;;;;1.30;1.10;;;2.80;98.00;;;;;;5091426;28;20459;-72
2021/04/08 05:05:14;;;;;;;1.37;1.27;;;2.90;98.00;;;;;;5093664;28;20961;-72
2021/04/08 05:07:40;;;;;;;1.30;1.30;;;2.90;98.00;;;;;;5091244;28;20517;-73
2021/04/08 05:10:08;;;;;;;1.20;1.00;;;2.90;98.00;;;;;;5093437;28;20487;-72
2021/04/08 05:12:35;;;;;;;2.13;1.87;;;2.80;98.00;;;;;;5091665;28;20985;-72
2021/04/08 05:15:03;;;;;;;1.20;1.10;;;2.80;98.00;;;;;;5093467;28;20490;-73
2021/04/08 05:17:32;;;;;;;1.60;1.53;;;2.70;98.00;;;;;;5091178;28;20549;-72
2021/04/08 05:19:58;;;;;;;1.40;1.20;;;2.70;98.00;;;;;;5093583;28;20459;-72
2021/04/08 05:22:25;;;;;;;3.50;1.83;;;2.70;98.00;;;;;;5089898;28;20468;-72
2021/04/08 05:25:03;;;;;;;1.20;0.93;;;2.70;98.00;;;;;;5093316;28;20466;-72
2021/04/08 05:27:30;;;;;;;1.20;1.07;;;2.70;98.00;;;;;;5090948;28;20462;-73
2021/04/08 05:30:00;;;;;;;2.90;1.20;;;2.70;98.00;;;;;;5093414;28;20455;-72
2021/04/08 05:32:27;;;;;;;1.23;1.23;;;2.80;98.00;;;;;;5090693;28;20456;-72
2021/04/08 05:34:54;;;;;;;1.20;1.00;;;2.90;98.00;;;;;;5093141;28;20484;-72
2021/04/08 05:37:21;;;;;;;1.20;1.07;;;2.90;98.00;;;;;;5090763;28;20456;-72
2021/04/08 05:39:47;;;;;;;1.33;1.10;;;3.00;98.00;;;;;;5093424;28;20464;-72
2021/04/08 05:42:14;;;;;;;1.20;1.00;;;2.90;98.00;;;;;;5090843;28;20458;-72
2021/04/08 05:44:41;;;;;;;1.40;1.10;;;2.90;98.00;;;;;;5093236;28;20509;-73
2021/04/08 05:47:07;;;;;;;1.17;1.00;;;2.90;98.00;;;;;;5090550;28;20803;-72
2021/04/08 05:49:35;;;;;;;1.20;1.00;;;2.90;98.00;;;;;;5093035;28;20444;-72
2021/04/08 05:52:04;;;;;;;1.37;1.33;;;2.90;98.00;;;;;;5090483;28;20480;-72
2021/04/08 05:54:31;;;;;;;1.30;1.20;;;3.00;98.00;;;;;;5092780;28;20483;-72
2021/04/08 05:56:57;;;;;;;1.20;1.10;;;3.20;98.00;;;;;;5090764;28;20499;-72
2021/04/08 05:59:24;;;;;;;1.40;1.20;;;3.30;98.00;;;;;;5092648;28;20980;-72
2021/04/08 06:01:50;;;;;;;1.20;1.10;;;3.50;98.00;;;;;;5090207;28;20448;-72
2021/04/08 06:04:17;;;;;;;1.20;0.90;;;3.70;98.00;;;;;;5092661;28;20448;-73
2021/04/08 06:06:44;;;;;;;1.40;1.20;;;3.70;98.00;;;;;;5090245;28;20451;-73
2021/04/08 06:09:11;;;;;;;1.50;1.23;;;3.70;98.00;;;;;;5092527;28;20460;-72
2021/04/08 06:11:37;;;;;;;1.30;1.10;;;3.80;98.00;;;;;;5090243;28;20876;-72
2021/04/08 06:14:04;;;;;;;1.20;1.10;;;3.90;98.00;;;;;;5092474;28;20480;-72
2021/04/08 06:16:30;;;;;;;1.20;1.03;;;4.00;98.00;;;;;;5089839;28;20456;-72
2021/04/08 06:18:57;;;;;;;1.20;1.00;;;4.10;98.00;;;;;;5092047;28;20975;-72
2021/04/08 06:21:23;;;;;;;1.20;1.10;;;4.20;98.00;;;;;;5088584;28;20513;-72
2021/04/08 06:23:53;;;;;;;1.20;1.00;;;4.30;98.00;;;;;;5092040;28;20455;-72
2021/04/08 06:26:19;;;;;;;1.40;1.20;;;4.30;98.00;;;;;;5089744;28;20453;-74
2021/04/08 06:28:50;;;;;;;1.30;1.10;;;4.30;98.00;;;;;;5091917;28;20484;-72
2021/04/08 06:31:16;;;;;;;1.53;1.40;;;4.20;98.00;;;;;;5091541;28;20463;-72
2021/04/08 06:33:43;;;;;;;3.40;1.47;;;4.10;98.00;;;;;;5090839;28;20849;-72
2021/04/08 06:36:09;;;;;;;1.20;1.00;;;4.30;98.00;;;;;;5091800;28;20482;-71
2021/04/08 06:38:36;;;;;;;1.30;1.20;;;4.10;98.00;;;;;;5089460;28;20459;-72
2021/04/08 06:41:04;;;;;;;1.20;1.00;;;4.10;98.00;;;;;;5091803;28;20557;-72
2021/04/08 06:43:32;;;;;;;1.20;1.00;;;4.20;98.00;;;;;;5089844;28;20459;-72
2021/04/08 06:46:00;;;;;;;1.60;1.50;;;4.20;98.00;;;;;;5091587;28;20486;-71
2021/04/08 06:48:32;;;;;;;1.20;1.10;;;4.30;98.00;;;;;;5089392;28;20460;-72
2021/04/08 06:51:00;;;;;;;1.20;1.00;;;4.30;97.50;;;;;;5091679;28;20456;-71
2021/04/08 06:53:27;;;;;;;1.20;1.10;;;4.20;95.50;;;;;;5089389;28;20525;-72
2021/04/08 06:55:56;;;;;;;1.20;1.10;;;4.10;96.00;;;;;;5091989;28;20455;-71
2021/04/08 06:58:23;;;;;;;1.20;1.00;;;4.10;97.00;;;;;;5089469;28;20452;-72
2021/04/08 07:00:50;;;;;;;1.20;1.00;;;4.00;95.10;;;;;;5091579;28;20460;-71
2021/04/08 07:03:18;;;;;;;1.20;1.00;;;4.00;95.70;;;;;;5089112;28;20922;-71
2021/04/08 07:05:45;;;;;;;1.20;1.10;;;4.10;97.20;;;;;;5091470;28;20871;-72
2021/04/08 07:08:12;;;;;;;1.20;1.00;;;4.20;96.00;;;;;;5089312;28;20452;-72
2021/04/08 07:10:40;;;;;;;1.50;1.40;;;4.30;95.00;;;;;;5091279;28;20456;-71
2021/04/08 07:13:08;;;;;;;1.20;1.00;;;4.20;94.80;;;;;;5088682;28;20483;-71
2021/04/08 07:15:35;;;;;;;1.40;1.30;;;4.10;94.10;;;;;;5091076;28;20451;-71
2021/04/08 07:18:05;;;;;;;1.30;1.10;;;4.10;94.30;;;;;;5088783;28;20494;-72
2021/04/08 07:20:31;;;;;;;1.20;1.00;;;4.20;95.80;;;;;;5090807;28;20954;-70
2021/04/08 07:23:11;;;;;;;1.20;1.00;;;4.20;93.50;;;;;;5089161;28;20464;-71
2021/04/08 07:25:37;;;;;;;1.20;1.10;;;4.20;91.10;;;;;;5090987;28;20529;-71
2021/04/08 07:28:31;;;;;;;1.40;1.10;;;4.40;93.40;;;;;;5088766;28;20508;-71
2021/04/08 07:31:25;;;;;;;1.20;1.00;;;4.50;93.70;;;;;;5090878;28;20463;-72
2021/04/08 07:33:52;;;;;;;1.20;1.00;;;4.70;91.90;;;;;;5089324;28;20490;-69
2021/04/08 07:36:29;;;;;;;1.83;1.67;;;4.80;91.40;;;;;;5090185;28;20463;-68
2021/04/08 07:38:57;;;;;;;1.20;0.90;;;4.90;90.30;;;;;;5090301;28;20538;-69
2021/04/08 07:41:26;;;;;;;1.20;1.00;;;5.00;90.90;;;;;;5089901;28;20809;-71
2021/04/08 07:44:04;;;;;;;1.20;1.07;;;5.00;88.90;;;;;;5090289;28;20534;-71
2021/04/08 07:46:39;;;;;;;1.20;1.00;;;5.00;88.50;;;;;;5088154;28;20452;-71
2021/04/08 07:49:23;;;;;;;3.03;1.67;;;5.00;87.40;;;;;;5090024;28;20450;-71
2021/04/08 07:51:50;;;;;;;1.20;1.00;;;5.10;86.30;;;;;;5088111;28;20485;-71
2021/04/08 07:54:18;;;;;;;1.60;1.40;;;5.20;86.90;;;;;;5090295;28;20485;-70
2021/04/08 07:56:45;;;;;;;1.20;0.90;;;5.30;84.10;;;;;;5088440;28;20460;-70
2021/04/08 07:59:22;;;;;;;1.50;1.20;;;5.30;83.90;;;;;;5089998;28;20453;-70
2021/04/08 08:01:52;;;;;;;1.20;0.90;;;5.40;84.10;;;;;;5088072;28;20988;-70
2021/04/08 08:04:27;;;;;;;1.20;0.90;;;5.40;80.70;;;;;;5088896;28;20448;-70
2021/04/08 08:06:54;;;;;;;1.40;1.37;;;5.50;82.10;;;;;;5087911;28;20535;-72
2021/04/08 08:09:23;;;;;;;1.20;0.90;;;5.80;82.10;;;;;;5090112;28;20766;-74
2021/04/08 08:11:50;;;;;;;1.20;0.90;;;5.90;88.90;;;;;;5088253;28;20903;-69
2021/04/08 08:14:19;;;;;;;1.20;1.00;;;6.70;83.20;;;;;;5090359;28;20788;-71
2021/04/08 08:17:07;;;;;;;1.30;1.20;;;6.90;77.80;;;;;;5088080;28;20494;-71
2021/04/08 08:19:34;;;;;;;1.50;1.33;;;6.90;79.60;;;;;;5090127;28;20494;-72
2021/04/08 08:22:02;;;;;;;2.03;1.20;;;6.70;78.20;;;;;;5087738;28;20486;-72
2021/04/08 08:24:28;;;;;;;1.20;1.00;;;6.60;76.70;;;;;;5089798;28;20535;-70
2021/04/08 08:26:55;;;;;;;1.20;0.90;;;6.40;77.20;;;;;;5087832;28;20462;-71
2021/04/08 08:29:25;;;;;;;1.20;0.93;;;6.40;80.10;;;;;;5089631;28;20453;-71
2021/04/08 08:31:53;;;;;;;1.20;0.97;;;6.40;77.20;;;;;;5090201;28;20885;-71
2021/04/08 08:34:22;;;;;;;1.20;1.00;;;6.40;79.40;;;;;;5093763;28;20516;-69
2021/04/08 08:36:51;;;;;;;1.20;1.00;;;6.80;85.80;;;;;;5091736;28;20459;-70
2021/04/08 08:39:20;;;;;;;1.20;1.10;;;6.90;77.00;;;;;;5095343;28;20498;-72
2021/04/08 08:41:48;;;;;;;1.20;1.00;;;6.80;77.80;;;;;;5092061;28;20467;-71
2021/04/08 08:44:17;;;;;;;1.20;1.10;;;6.80;78.70;;;;;;5094770;28;20475;-71
2021/04/08 08:49:39;;;;;;;1.30;1.17;;;6.10;76.10;;;;;;5093026;28;20461;-71
2021/04/08 08:52:06;;;;;;;1.20;1.00;;;6.10;78.00;;;;;;5091365;28;20917;-71
2021/04/08 08:54:34;;;;;;;1.20;1.00;;;6.20;78.50;;;;;;5093329;28;20820;-72
2021/04/08 08:57:02;;;;;;;1.20;1.00;;;6.10;76.00;;;;;;5091172;28;20500;-72
2021/04/08 08:59:29;;;;;;;1.40;1.20;;;6.00;77.40;;;;;;5093005;28;20451;-72
2021/04/08 09:01:57;;;;;;;1.20;1.10;;;6.00;78.00;;;;;;5091210;28;20460;-73
2021/04/08 09:04:24;;;;;;;1.20;1.00;;;6.10;77.70;;;;;;5093325;28;20511;-72
2021/04/08 09:06:53;;;;;;;1.20;1.00;;;5.90;77.20;;;;;;5091104;28;20856;-73
2021/04/08 09:09:22;;;;;;;1.20;1.00;;;5.90;77.50;;;;;;5093025;28;20462;-72
2021/04/08 09:11:50;;;;;;;1.40;1.20;;;5.90;80.00;;;;;;5090903;28;20514;-72
2021/04/08 09:14:16;;;;;;;1.30;1.10;;;6.00;79.20;;;;;;5093256;28;20515;-71
2021/04/08 09:16:45;;;;;;;1.60;1.30;;;6.10;78.60;;;;;;5090571;28;20456;-72
2021/04/08 09:19:13;;;;;;;1.40;1.30;;;6.00;79.20;;;;;;5092730;28;21021;-72
2021/04/08 09:21:45;;;;;;;2.07;1.40;;;5.90;80.30;;;;;;5090630;28;20857;-72
2021/04/08 09:24:14;;;;;;;1.77;1.10;;;5.90;80.50;;;;;;5092853;28;20457;-71
2021/04/08 09:26:43;;;;;;;1.30;1.20;;;6.00;80.40;;;;;;5090867;28;20481;-71
2021/04/08 09:29:11;;;;;;;1.57;1.43;;;6.00;79.70;;;;;;5092584;28;20548;-71
2021/04/08 09:31:38;;;;;;;1.20;1.00;;;6.00;78.80;;;;;;5091217;28;20478;-71
2021/04/08 09:34:06;;;;;;;1.20;1.03;;;6.10;79.30;;;;;;5092887;28;20487;-71
2021/04/08 09:36:40;;;;;;;1.20;1.10;;;6.10;81.10;;;;;;5092629;28;20460;-71
2021/04/08 09:39:27;;;;;;;1.80;1.43;;;5.90;80.60;;;;;;5092484;28;20457;-70
2021/04/08 09:41:58;;;;;;;1.20;1.00;;;5.90;80.50;;;;;;5088734;28;20458;-70
2021/04/08 09:44:26;;;;;;;1.67;1.27;;;6.00;80.80;;;;;;5092458;28;20448;-71
2021/04/08 09:46:55;;;;;;;3.20;1.30;;;6.00;79.40;;;;;;5089186;28;20468;-70
2021/04/08 09:49:47;;;;;;;1.20;1.10;;;6.00;80.10;;;;;;5091729;28;20829;-70
2021/04/08 09:52:16;;;;;;;1.20;1.00;;;6.00;79.50;;;;;;5090265;28;20533;-70
2021/04/08 09:54:47;;;;;;;1.20;1.00;;;6.20;81.20;;;;;;5091907;28;20490;-70
2021/04/08 09:57:36;;;;;;;1.37;1.10;;;6.20;78.70;;;;;;5090642;28;20495;-70
2021/04/08 10:00:06;;;;;;;1.20;1.00;;;6.60;82.70;;;;;;5092002;28;20450;-69
2021/04/08 10:02:33;;;;;;;2.27;1.30;;;6.80;80.50;;;;;;5090631;28;20797;-69
2021/04/08 10:05:05;;;;;;;2.50;1.43;;;6.80;79.70;;;;;;5092151;28;20447;-70
2021/04/08 10:07:46;;;;;;;1.20;1.00;;;6.80;78.20;;;;;;5090043;28;20462;-70
2021/04/08 10:10:15;;;;;;;1.20;1.00;;;6.70;78.80;;;;;;5092106;28;20469;-70
2021/04/08 10:12:42;;;;;;;1.30;1.00;;;6.70;79.60;;;;;;5090348;28;20505;-70
2021/04/08 10:15:09;;;;;;;1.20;1.10;;;6.60;80.10;;;;;;5093153;28;20498;-70
2021/04/08 10:17:37;;;;;;;1.20;1.03;;;6.60;80.90;;;;;;5088920;28;20816;-70
2021/04/08 10:20:06;;;;;;;1.60;1.30;;;6.70;81.70;;;;;;5091635;28;20503;-69
2021/04/08 10:22:40;;;;;;;1.20;1.00;;;6.70;80.60;;;;;;5090002;28;20478;-69
2021/04/08 10:25:08;;;;;;;1.30;1.10;;;6.80;80.70;;;;;;5091845;28;21031;-69
2021/04/08 10:27:36;;;;;;;1.20;1.10;;;6.70;80.60;;;;;;5090079;28;20522;-67
2021/04/08 10:30:13;;;;;;;2.57;1.63;;;6.70;81.20;;;;;;5091678;28;20480;-67
2021/04/08 10:32:42;;;;;;;1.20;1.10;;;6.80;79.80;;;;;;5089708;28;20592;-66
2021/04/08 10:35:23;;;;;;;1.40;1.20;;;6.80;80.90;;;;;;5091443;28;21019;-70
2021/04/08 10:38:01;;;;;;;1.20;1.10;;;6.80;80.50;;;;;;5071844;28;20458;-70
2021/04/08 10:40:28;;;;;;;1.20;1.10;;;6.80;82.10;;;;;;5091488;28;20454;-70
2021/04/08 10:43:11;;;;;;;1.20;1.10;;;6.80;81.20;;;;;;5089666;28;20490;-69
2021/04/08 10:45:49;;;;;;;1.20;1.03;;;6.80;81.50;;;;;;5091797;28;20948;-69
2021/04/08 10:48:16;;;;;;;1.87;1.87;;;6.70;79.90;;;;;;5089461;28;20900;-70
2021/04/08 10:50:42;;;;;;;1.20;1.10;;;6.70;80.60;;;;;;5091306;28;20516;-69
2021/04/08 10:53:09;;;;;;;1.60;1.10;;;6.80;82.70;;;;;;5088766;28;20514;-69
2021/04/08 10:55:35;;;;;;;1.20;1.00;;;7.00;81.30;;;;;;5090912;28;20528;-69
2021/04/08 10:58:02;;;;;;;1.30;1.10;;;7.00;83.50;;;;;;5089233;28;20481;-70
2021/04/08 11:00:29;;;;;;;1.20;1.00;;;7.10;80.90;;;;;;5091070;28;20483;-69
2021/04/08 11:02:58;;;;;;;1.20;1.03;;;7.10;80.30;;;;;;5089291;28;20463;-70
2021/04/08 11:05:26;;;;;;;1.20;1.03;;;7.00;82.20;;;;;;5090903;28;20454;-69
2021/04/08 11:07:57;;;;;;;1.20;1.03;;;6.80;80.10;;;;;;5088783;28;20458;-69
2021/04/08 11:10:24;;;;;;;1.20;1.20;;;6.70;82.00;;;;;;5089511;28;20540;-69
2021/04/08 11:12:52;;;;;;;4.03;1.40;;;6.90;81.40;;;;;;5089064;28;20467;-69
2021/04/08 11:15:25;;;;;;;1.93;1.20;;;7.20;82.00;;;;;;5090900;28;20506;-70
2021/04/08 11:18:01;;;;;;;1.50;1.10;;;7.40;81.90;;;;;;5089644;28;21041;-69
2021/04/08 11:20:30;;;;;;;1.20;1.00;;;7.60;79.50;;;;;;5090676;28;20478;-67
2021/04/08 11:22:59;;;;;;;1.20;1.00;;;7.90;80.20;;;;;;5088770;28;20961;-69
2021/04/08 11:25:27;;;;;;;1.20;1.17;;;8.50;79.90;;;;;;5090701;28;20456;-67
2021/04/08 11:27:55;;;;;;;1.20;1.00;;;8.90;79.30;;;;;;5088697;28;20459;-67
2021/04/08 11:30:27;;;;;;;1.20;0.90;;;9.00;77.70;;;;;;5090895;28;20595;-66
2021/04/08 11:32:57;;;;;;;1.20;1.00;;;8.90;76.60;;;;;;5088570;28;20589;-68
2021/04/08 11:35:30;;;;;;;1.30;1.27;;;8.90;77.00;;;;;;5090527;28;20903;-69
2021/04/08 11:38:11;;;;;;;1.67;1.13;;;8.70;77.70;;;;;;5088322;28;20468;-69
2021/04/08 11:40:39;;;;;;;1.20;0.90;;;8.40;76.90;;;;;;5090355;28;20456;-70
2021/04/08 11:43:23;;;;;;;1.20;1.20;;;8.10;75.90;;;;;;5088673;28;20491;-70
2021/04/08 11:45:54;;;;;;;1.43;1.03;;;8.00;79.50;;;;;;5090356;28;20882;-68
2021/04/08 11:48:22;;;;;;;1.20;1.00;;;7.90;79.60;;;;;;5088044;28;20498;-69
2021/04/08 11:50:50;;;;;;;1.87;1.30;;;7.90;78.80;;;;;;5090672;28;20467;-70
2021/04/08 11:53:18;;;;;;;1.50;1.17;;;7.90;77.30;;;;;;5088684;28;20460;-70
2021/04/08 11:55:47;;;;;;;1.30;1.17;;;7.70;78.90;;;;;;5090325;28;21028;-70
2021/04/08 11:58:24;;;;;;;1.20;1.00;;;7.60;78.90;;;;;;5088362;28;20617;-70
2021/04/08 12:00:51;;;;;;;1.20;1.10;;;7.70;78.50;;;;;;5090523;28;20940;-70
2021/04/08 12:03:20;;;;;;;2.30;1.60;;;7.80;79.60;;;;;;5088439;28;20964;-70
2021/04/08 12:05:48;;;;;;;1.87;1.20;;;7.90;80.20;;;;;;5092548;28;20515;-70
2021/04/08 12:08:14;;;;;;;1.30;1.10;;;8.00;78.00;;;;;;5092383;28;20492;-70
2021/04/08 12:10:41;;;;;;;1.73;1.17;;;8.00;78.30;;;;;;5094212;28;20453;-70
2021/04/08 12:13:09;;;;;;;2.97;1.73;;;8.10;78.90;;;;;;5092298;28;20494;-70
2021/04/08 12:15:41;;;;;;;1.30;1.20;;;8.10;77.20;;;;;;5094163;28;20514;-70
2021/04/08 12:18:20;;;;;;;2.40;1.20;;;8.00;77.20;;;;;;5091903;28;20526;-70
2021/04/08 12:20:49;;;;;;;1.20;1.10;;;8.20;77.60;;;;;;5094044;28;21018;-70
2021/04/08 12:23:17;;;;;;;1.40;1.10;;;8.50;76.90;;;;;;5092156;28;20453;-70
2021/04/08 12:25:50;;;;;;;1.20;1.00;;;8.70;78.40;;;;;;5092574;28;20460;-70
2021/04/08 12:28:17;;;;;;;1.60;1.30;;;8.70;76.10;;;;;;5091540;28;20779;-71
2021/04/08 12:30:56;;;;;;;1.30;1.20;;;8.70;75.70;;;;;;5076931;28;20473;-70
2021/04/08 12:33:24;;;;;;;1.20;1.03;;;8.70;78.20;;;;;;5089810;28;20472;-70
2021/04/08 12:35:52;;;;;;;1.50;1.10;;;8.50;73.80;;;;;;5092770;28;20499;-70
2021/04/08 12:38:20;;;;;;;1.30;1.20;;;8.50;75.30;;;;;;5091206;28;20922;-72
2021/04/08 12:40:47;;;;;;;1.60;1.23;;;8.70;77.40;;;;;;5093630;28;20457;-73
2021/04/08 12:43:14;;;;;;;1.97;1.20;;;8.90;75.40;;;;;;5091415;28;20490;-73
2021/04/08 12:45:41;;;;;;;1.40;1.30;;;9.10;74.90;;;;;;5092184;28;20818;-73
2021/04/08 12:48:09;;;;;;;1.73;1.63;;;9.50;74.10;;;;;;5090231;28;20489;-72
2021/04/08 12:50:37;;;;;;;1.20;1.00;;;9.70;73.70;;;;;;5093383;28;20456;-73
2021/04/08 12:53:05;;;;;;;1.27;1.23;;;9.90;75.40;;;;;;5091346;28;20453;-74
2021/04/08 12:55:32;;;;;;;1.90;1.40;;;10.00;71.00;;;;;;5093470;28;20485;-72
2021/04/08 12:58:00;;;;;;;3.47;1.20;;;10.10;72.10;;;;;;5091130;28;20948;-72
2021/04/08 13:00:27;;;;;;;1.20;1.00;;;10.00;72.30;;;;;;5093272;28;20501;-71
2021/04/08 13:02:55;;;;;;;1.20;1.00;;;9.90;71.90;;;;;;5091540;28;20468;-71
2021/04/08 13:05:22;;;;;;;1.20;1.20;;;9.70;72.20;;;;;;5093138;28;20453;-71
2021/04/08 13:07:48;;;;;;;1.20;1.00;;;9.30;71.00;;;;;;5091330;28;20461;-70
2021/04/08 13:10:17;;;;;;;2.40;1.63;;;9.40;72.40;;;;;;5092729;28;20467;-72
2021/04/08 13:12:44;;;;;;;1.73;1.30;;;9.40;72.50;;;;;;5091297;28;20468;-69